sensor_id;sensor_type;location;lat;lon;timestamp;temperature;humidity
31809;DHT22;18379;48.208;-1.518;2023-06-14T00:04:52;16.30;99.90
31809;DHT22;18379;48.208;-1.518;2023-06-14T00:09:53;16.20;99.90
31809;DHT22;18379;48.208;-1.518;2023-06-14T00:14:54;16.20;99.90
31809;DHT22;18379;48.208;-1.518;2023-06-14T00:19:56;16.10;99.90
31809;DHT22;18379;48.208;-1.518;2023-06-14T00:24:57;16.10;99.90
31809;DHT22;18379;48.208;-1.518;2023-06-14T00:29:58;16.00;99.90
31809;DHT22;18379;48.208;-1.518;2023-06-14T00:34:58;16.10;99.90
31809;DHT22;18379;48.208;-1.518;2023-06-14T00:39:59;16.00;99.90
31809;DHT22;18379;48.208;-1.518;2023-06-14T00:45:00;16.00;99.90
31809;DHT22;18379;48.208;-1.518;2023-06-14T00:50:01;16.00;99.90
31809;DHT22;18379;48.208;-1.518;2023-06-14T00:55:03;15.90;99.90
31809;DHT22;18379;48.208;-1.518;2023-06-14T01:00:05;16.00;99.90
31809;DHT22;18379;48.208;-1.518;2023-06-14T01:05:10;16.00;99.90
31809;DHT22;18379;48.208;-1.518;2023-06-14T01:10:15;16.00;99.90
31809;DHT22;18379;48.208;-1.518;2023-06-14T01:15:21;16.10;99.90
31809;DHT22;18379;48.208;-1.518;2023-06-14T01:20:31;15.90;99.90
31809;DHT22;18379;48.208;-1.518;2023-06-14T01:25:33;16.00;99.90
31809;DHT22;18379;48.208;-1.518;2023-06-14T01:30:38;15.80;99.90
31809;DHT22;18379;48.208;-1.518;2023-06-14T01:35:41;15.80;99.90
31809;DHT22;18379;48.208;-1.518;2023-06-14T01:40:46;15.70;99.90
31809;DHT22;18379;48.208;-1.518;2023-06-14T01:45:48;15.80;99.90
31809;DHT22;18379;48.208;-1.518;2023-06-14T01:50:52;15.70;99.90
31809;DHT22;18379;48.208;-1.518;2023-06-14T01:55:53;15.70;99.90
31809;DHT22;18379;48.208;-1.518;2023-06-14T02:00:54;15.70;99.90
31809;DHT22;18379;48.208;-1.518;2023-06-14T02:05:59;15.70;99.90
31809;DHT22;18379;48.208;-1.518;2023-06-14T02:10:59;15.50;99.90
31809;DHT22;18379;48.208;-1.518;2023-06-14T02:16:01;15.40;99.90
31809;DHT22;18379;48.208;-1.518;2023-06-14T02:21:02;15.50;99.90
31809;DHT22;18379;48.208;-1.518;2023-06-14T02:26:02;15.40;99.90
31809;DHT22;18379;48.208;-1.518;2023-06-14T02:31:04;15.40;99.90
31809;DHT22;18379;48.208;-1.518;2023-06-14T02:36:05;15.40;99.90
31809;DHT22;18379;48.208;-1.518;2023-06-14T02:41:06;15.40;99.90
31809;DHT22;18379;48.208;-1.518;2023-06-14T02:46:07;15.40;99.90
31809;DHT22;18379;48.208;-1.518;2023-06-14T02:51:08;15.30;99.90
31809;DHT22;18379;48.208;-1.518;2023-06-14T02:56:10;15.40;99.90
31809;DHT22;18379;48.208;-1.518;2023-06-14T03:01:12;15.30;99.90
31809;DHT22;18379;48.208;-1.518;2023-06-14T03:06:13;15.40;99.90
31809;DHT22;18379;48.208;-1.518;2023-06-14T03:11:14;15.30;99.90
31809;DHT22;18379;48.208;-1.518;2023-06-14T03:16:15;15.20;99.90
31809;DHT22;18379;48.208;-1.518;2023-06-14T03:21:18;15.30;99.90
31809;DHT22;18379;48.208;-1.518;2023-06-14T03:26:20;15.30;99.90
31809;DHT22;18379;48.208;-1.518;2023-06-14T03:31:22;15.20;99.90
31809;DHT22;18379;48.208;-1.518;2023-06-14T03:36:24;15.20;99.90
31809;DHT22;18379;48.208;-1.518;2023-06-14T03:41:26;15.20;99.90
31809;DHT22;18379;48.208;-1.518;2023-06-14T03:46:27;15.20;99.90
31809;DHT22;18379;48.208;-1.518;2023-06-14T03:51:27;15.20;99.90
31809;DHT22;18379;48.208;-1.518;2023-06-14T03:56:29;15.20;99.90
31809;DHT22;18379;48.208;-1.518;2023-06-14T04:01:30;15.20;99.90
31809;DHT22;18379;48.208;-1.518;2023-06-14T04:06:31;15.20;99.90
31809;DHT22;18379;48.208;-1.518;2023-06-14T04:11:33;15.20;99.90
31809;DHT22;18379;48.208;-1.518;2023-06-14T04:16:34;15.10;99.90
31809;DHT22;18379;48.208;-1.518;2023-06-14T04:21:34;15.10;99.90
31809;DHT22;18379;48.208;-1.518;2023-06-14T04:26:36;15.00;99.90
31809;DHT22;18379;48.208;-1.518;2023-06-14T04:31:36;15.10;99.90
31809;DHT22;18379;48.208;-1.518;2023-06-14T04:36:40;15.00;99.90
31809;DHT22;18379;48.208;-1.518;2023-06-14T04:41:42;15.00;99.90
31809;DHT22;18379;48.208;-1.518;2023-06-14T04:46:43;15.00;99.90
31809;DHT22;18379;48.208;-1.518;2023-06-14T04:51:46;15.00;99.90
31809;DHT22;18379;48.208;-1.518;2023-06-14T04:56:51;15.00;99.90
31809;DHT22;18379;48.208;-1.518;2023-06-14T05:01:53;15.00;99.90
31809;DHT22;18379;48.208;-1.518;2023-06-14T05:06:54;15.10;99.90
31809;DHT22;18379;48.208;-1.518;2023-06-14T05:11:55;15.20;99.90
31809;DHT22;18379;48.208;-1.518;2023-06-14T05:16:56;15.10;99.90
31809;DHT22;18379;48.208;-1.518;2023-06-14T05:21:57;15.20;99.90
31809;DHT22;18379;48.208;-1.518;2023-06-14T05:26:58;15.20;99.90
31809;DHT22;18379;48.208;-1.518;2023-06-14T05:31:59;15.40;99.90
31809;DHT22;18379;48.208;-1.518;2023-06-14T05:37:00;15.40;99.90
31809;DHT22;18379;48.208;-1.518;2023-06-14T05:42:01;15.50;99.90
31809;DHT22;18379;48.208;-1.518;2023-06-14T05:47:02;15.60;99.90
31809;DHT22;18379;48.208;-1.518;2023-06-14T05:52:09;15.80;99.90
31809;DHT22;18379;48.208;-1.518;2023-06-14T05:57:12;15.90;99.90
31809;DHT22;18379;48.208;-1.518;2023-06-14T06:02:13;15.90;99.90
31809;DHT22;18379;48.208;-1.518;2023-06-14T06:07:13;16.00;99.90
31809;DHT22;18379;48.208;-1.518;2023-06-14T06:12:14;16.00;99.90
31809;DHT22;18379;48.208;-1.518;2023-06-14T06:17:15;16.20;99.90
31809;DHT22;18379;48.208;-1.518;2023-06-14T06:22:16;16.30;99.90
31809;DHT22;18379;48.208;-1.518;2023-06-14T06:27:17;16.50;99.90
31809;DHT22;18379;48.208;-1.518;2023-06-14T06:32:19;16.60;99.90
31809;DHT22;18379;48.208;-1.518;2023-06-14T06:37:20;16.70;99.90
31809;DHT22;18379;48.208;-1.518;2023-06-14T06:42:21;16.90;99.90
31809;DHT22;18379;48.208;-1.518;2023-06-14T06:47:22;17.00;99.90
31809;DHT22;18379;48.208;-1.518;2023-06-14T06:52:23;17.20;99.90
31809;DHT22;18379;48.208;-1.518;2023-06-14T06:57:23;17.30;99.90
31809;DHT22;18379;48.208;-1.518;2023-06-14T07:02:24;17.60;99.90
31809;DHT22;18379;48.208;-1.518;2023-06-14T07:07:25;17.70;99.90
31809;DHT22;18379;48.208;-1.518;2023-06-14T07:12:26;17.80;99.90
31809;DHT22;18379;48.208;-1.518;2023-06-14T07:17:27;18.00;99.90
31809;DHT22;18379;48.208;-1.518;2023-06-14T07:22:30;18.10;99.90
31809;DHT22;18379;48.208;-1.518;2023-06-14T07:27:31;18.10;99.90
31809;DHT22;18379;48.208;-1.518;2023-06-14T07:32:32;18.40;99.90
31809;DHT22;18379;48.208;-1.518;2023-06-14T07:37:32;18.70;99.90
31809;DHT22;18379;48.208;-1.518;2023-06-14T07:42:34;19.10;99.90
31809;DHT22;18379;48.208;-1.518;2023-06-14T07:47:36;19.10;99.90
31809;DHT22;18379;48.208;-1.518;2023-06-14T07:52:37;19.30;99.90
31809;DHT22;18379;48.208;-1.518;2023-06-14T07:57:38;19.40;99.90
31809;DHT22;18379;48.208;-1.518;2023-06-14T08:02:38;19.50;99.90
31809;DHT22;18379;48.208;-1.518;2023-06-14T08:07:39;19.70;99.90
31809;DHT22;18379;48.208;-1.518;2023-06-14T08:12:41;19.70;99.90
31809;DHT22;18379;48.208;-1.518;2023-06-14T08:17:45;20.10;99.90
31809;DHT22;18379;48.208;-1.518;2023-06-14T08:22:45;20.10;99.90
31809;DHT22;18379;48.208;-1.518;2023-06-14T08:27:48;20.20;99.90
31809;DHT22;18379;48.208;-1.518;2023-06-14T08:32:50;20.40;99.90
31809;DHT22;18379;48.208;-1.518;2023-06-14T08:37:53;20.70;99.90
31809;DHT22;18379;48.208;-1.518;2023-06-14T08:42:54;20.80;99.90
31809;DHT22;18379;48.208;-1.518;2023-06-14T08:47:55;21.00;99.90
31809;DHT22;18379;48.208;-1.518;2023-06-14T08:53:01;21.30;99.90
31809;DHT22;18379;48.208;-1.518;2023-06-14T08:58:03;21.70;99.90
31809;DHT22;18379;48.208;-1.518;2023-06-14T09:03:05;21.80;99.90
31809;DHT22;18379;48.208;-1.518;2023-06-14T09:08:06;22.00;99.90
31809;DHT22;18379;48.208;-1.518;2023-06-14T09:13:07;22.20;99.90
31809;DHT22;18379;48.208;-1.518;2023-06-14T09:18:07;22.30;99.90
31809;DHT22;18379;48.208;-1.518;2023-06-14T09:23:08;22.70;99.90
31809;DHT22;18379;48.208;-1.518;2023-06-14T09:28:09;22.60;99.90
31809;DHT22;18379;48.208;-1.518;2023-06-14T09:33:10;22.80;99.90
31809;DHT22;18379;48.208;-1.518;2023-06-14T09:38:16;23.00;99.90
31809;DHT22;18379;48.208;-1.518;2023-06-14T09:43:18;23.20;99.90
31809;DHT22;18379;48.208;-1.518;2023-06-14T09:48:20;23.40;99.90
31809;DHT22;18379;48.208;-1.518;2023-06-14T09:53:22;23.50;99.90
31809;DHT22;18379;48.208;-1.518;2023-06-14T09:58:26;23.90;99.90
31809;DHT22;18379;48.208;-1.518;2023-06-14T10:03:29;24.10;99.90
31809;DHT22;18379;48.208;-1.518;2023-06-14T10:08:36;24.40;99.90
31809;DHT22;18379;48.208;-1.518;2023-06-14T10:13:37;24.60;99.90
31809;DHT22;18379;48.208;-1.518;2023-06-14T10:18:46;24.80;99.90
31809;DHT22;18379;48.208;-1.518;2023-06-14T10:23:50;24.90;99.90
31809;DHT22;18379;48.208;-1.518;2023-06-14T10:29:07;25.00;99.90
31809;DHT22;18379;48.208;-1.518;2023-06-14T10:34:29;25.00;99.90
31809;DHT22;18379;48.208;-1.518;2023-06-14T10:39:32;25.50;99.90
31809;DHT22;18379;48.208;-1.518;2023-06-14T10:44:37;25.80;99.90
31809;DHT22;18379;48.208;-1.518;2023-06-14T10:49:49;26.10;99.90
31809;DHT22;18379;48.208;-1.518;2023-06-14T10:55:03;26.30;99.90
31809;DHT22;18379;48.208;-1.518;2023-06-14T11:00:10;26.10;99.90
31809;DHT22;18379;48.208;-1.518;2023-06-14T11:05:24;26.30;99.90
31809;DHT22;18379;48.208;-1.518;2023-06-14T11:10:41;26.10;99.90
31809;DHT22;18379;48.208;-1.518;2023-06-14T11:15:45;26.50;99.90
31809;DHT22;18379;48.208;-1.518;2023-06-14T11:20:48;26.60;99.90
31809;DHT22;18379;48.208;-1.518;2023-06-14T11:25:53;26.70;99.90
31809;DHT22;18379;48.208;-1.518;2023-06-14T11:31:02;27.00;99.90
31809;DHT22;18379;48.208;-1.518;2023-06-14T11:36:05;27.00;99.90
31809;DHT22;18379;48.208;-1.518;2023-06-14T11:41:08;27.10;99.90
31809;DHT22;18379;48.208;-1.518;2023-06-14T11:46:13;27.40;99.90
31809;DHT22;18379;48.208;-1.518;2023-06-14T11:51:16;27.50;99.90
31809;DHT22;18379;48.208;-1.518;2023-06-14T11:56:19;27.40;99.90
31809;DHT22;18379;48.208;-1.518;2023-06-14T12:01:20;27.40;99.90
31809;DHT22;18379;48.208;-1.518;2023-06-14T12:06:28;27.60;99.90
31809;DHT22;18379;48.208;-1.518;2023-06-14T12:11:35;27.90;99.90
31809;DHT22;18379;48.208;-1.518;2023-06-14T12:16:38;28.10;99.90
31809;DHT22;18379;48.208;-1.518;2023-06-14T12:21:41;28.20;99.90
31809;DHT22;18379;48.208;-1.518;2023-06-14T12:26:42;28.90;99.90
31809;DHT22;18379;48.208;-1.518;2023-06-14T12:31:43;28.50;99.90
31809;DHT22;18379;48.208;-1.518;2023-06-14T12:36:44;28.80;99.90
31809;DHT22;18379;48.208;-1.518;2023-06-14T12:41:47;28.20;99.90
31809;DHT22;18379;48.208;-1.518;2023-06-14T12:46:47;28.80;99.90
31809;DHT22;18379;48.208;-1.518;2023-06-14T12:51:48;28.70;99.90
31809;DHT22;18379;48.208;-1.518;2023-06-14T12:56:49;29.10;99.90
31809;DHT22;18379;48.208;-1.518;2023-06-14T13:01:51;29.00;99.90
31809;DHT22;18379;48.208;-1.518;2023-06-14T13:06:54;29.60;99.90
31809;DHT22;18379;48.208;-1.518;2023-06-14T13:11:54;29.20;99.90
31809;DHT22;18379;48.208;-1.518;2023-06-14T13:16:55;29.20;99.90
31809;DHT22;18379;48.208;-1.518;2023-06-14T13:21:59;29.30;99.90
31809;DHT22;18379;48.208;-1.518;2023-06-14T13:27:00;29.90;99.90
31809;DHT22;18379;48.208;-1.518;2023-06-14T13:32:04;30.70;99.90
31809;DHT22;18379;48.208;-1.518;2023-06-14T13:37:05;30.70;99.90
31809;DHT22;18379;48.208;-1.518;2023-06-14T13:42:09;30.30;99.90
31809;DHT22;18379;48.208;-1.518;2023-06-14T13:47:11;30.10;99.90
31809;DHT22;18379;48.208;-1.518;2023-06-14T13:52:11;29.80;99.90
31809;DHT22;18379;48.208;-1.518;2023-06-14T13:57:14;29.10;99.90
31809;DHT22;18379;48.208;-1.518;2023-06-14T14:02:18;29.40;99.90
31809;DHT22;18379;48.208;-1.518;2023-06-14T14:07:18;29.70;99.90
31809;DHT22;18379;48.208;-1.518;2023-06-14T14:12:21;29.90;99.90
31809;DHT22;18379;48.208;-1.518;2023-06-14T14:17:22;29.70;99.90
31809;DHT22;18379;48.208;-1.518;2023-06-14T14:22:23;30.00;99.90
31809;DHT22;18379;48.208;-1.518;2023-06-14T14:27:24;29.80;99.90
31809;DHT22;18379;48.208;-1.518;2023-06-14T14:32:25;30.70;99.90
31809;DHT22;18379;48.208;-1.518;2023-06-14T14:37:29;30.90;99.90
31809;DHT22;18379;48.208;-1.518;2023-06-14T14:42:36;30.20;99.90
31809;DHT22;18379;48.208;-1.518;2023-06-14T14:47:43;29.90;99.90
31809;DHT22;18379;48.208;-1.518;2023-06-14T14:52:48;30.20;99.90
31809;DHT22;18379;48.208;-1.518;2023-06-14T14:57:49;30.50;99.90
31809;DHT22;18379;48.208;-1.518;2023-06-14T15:02:50;32.10;99.90
31809;DHT22;18379;48.208;-1.518;2023-06-14T15:07:51;31.50;98.00
31809;DHT22;18379;48.208;-1.518;2023-06-14T15:12:51;32.10;97.60
31809;DHT22;18379;48.208;-1.518;2023-06-14T15:17:52;32.00;98.10
31809;DHT22;18379;48.208;-1.518;2023-06-14T15:22:54;31.60;97.70
31809;DHT22;18379;48.208;-1.518;2023-06-14T15:27:59;31.90;99.90
31809;DHT22;18379;48.208;-1.518;2023-06-14T15:33:01;31.80;99.20
31809;DHT22;18379;48.208;-1.518;2023-06-14T15:38:02;32.10;98.60
31809;DHT22;18379;48.208;-1.518;2023-06-14T15:43:03;31.60;99.60
31809;DHT22;18379;48.208;-1.518;2023-06-14T15:48:04;32.30;98.80
31809;DHT22;18379;48.208;-1.518;2023-06-14T15:53:05;32.10;97.90
31809;DHT22;18379;48.208;-1.518;2023-06-14T15:58:06;32.60;98.70
31809;DHT22;18379;48.208;-1.518;2023-06-14T16:03:08;32.10;98.30
31809;DHT22;18379;48.208;-1.518;2023-06-14T16:08:08;32.50;97.90
31809;DHT22;18379;48.208;-1.518;2023-06-14T16:13:09;32.60;98.70
31809;DHT22;18379;48.208;-1.518;2023-06-14T16:18:10;31.90;97.80
31809;DHT22;18379;48.208;-1.518;2023-06-14T16:23:11;31.40;97.50
31809;DHT22;18379;48.208;-1.518;2023-06-14T16:28:12;30.90;97.70
31809;DHT22;18379;48.208;-1.518;2023-06-14T16:33:12;30.60;99.70
31809;DHT22;18379;48.208;-1.518;2023-06-14T16:38:13;31.10;99.90
31809;DHT22;18379;48.208;-1.518;2023-06-14T16:43:14;31.00;99.90
31809;DHT22;18379;48.208;-1.518;2023-06-14T16:48:15;31.50;99.90
31809;DHT22;18379;48.208;-1.518;2023-06-14T16:53:16;31.40;99.80
31809;DHT22;18379;48.208;-1.518;2023-06-14T16:58:17;30.20;99.90
31809;DHT22;18379;48.208;-1.518;2023-06-14T17:03:17;30.40;99.90
31809;DHT22;18379;48.208;-1.518;2023-06-14T17:08:18;30.60;99.90
31809;DHT22;18379;48.208;-1.518;2023-06-14T17:13:19;29.60;99.90
31809;DHT22;18379;48.208;-1.518;2023-06-14T17:18:21;28.70;99.90
31809;DHT22;18379;48.208;-1.518;2023-06-14T17:23:22;28.20;99.90
31809;DHT22;18379;48.208;-1.518;2023-06-14T17:28:22;28.20;99.90
31809;DHT22;18379;48.208;-1.518;2023-06-14T17:33:23;27.90;99.90
31809;DHT22;18379;48.208;-1.518;2023-06-14T17:38:24;28.50;99.90
31809;DHT22;18379;48.208;-1.518;2023-06-14T17:43:27;28.70;99.90
31809;DHT22;18379;48.208;-1.518;2023-06-14T17:48:28;27.90;99.90
31809;DHT22;18379;48.208;-1.518;2023-06-14T17:53:33;27.40;99.90
31809;DHT22;18379;48.208;-1.518;2023-06-14T17:58:34;27.50;99.90
31809;DHT22;18379;48.208;-1.518;2023-06-14T18:03:35;27.30;99.90
31809;DHT22;18379;48.208;-1.518;2023-06-14T18:08:36;27.30;99.90
31809;DHT22;18379;48.208;-1.518;2023-06-14T18:13:36;26.50;99.90
31809;DHT22;18379;48.208;-1.518;2023-06-14T18:18:37;26.00;99.90
31809;DHT22;18379;48.208;-1.518;2023-06-14T18:23:38;25.80;99.90
31809;DHT22;18379;48.208;-1.518;2023-06-14T18:28:39;25.30;99.90
31809;DHT22;18379;48.208;-1.518;2023-06-14T18:33:41;25.30;99.90
31809;DHT22;18379;48.208;-1.518;2023-06-14T18:38:42;24.90;99.90
31809;DHT22;18379;48.208;-1.518;2023-06-14T18:43:44;24.50;99.90
31809;DHT22;18379;48.208;-1.518;2023-06-14T18:48:46;24.40;99.90
31809;DHT22;18379;48.208;-1.518;2023-06-14T18:53:46;24.40;99.90
31809;DHT22;18379;48.208;-1.518;2023-06-14T18:58:47;24.40;99.90
31809;DHT22;18379;48.208;-1.518;2023-06-14T19:03:48;24.20;99.90
31809;DHT22;18379;48.208;-1.518;2023-06-14T19:08:49;24.00;99.90
31809;DHT22;18379;48.208;-1.518;2023-06-14T19:13:49;23.70;99.90
31809;DHT22;18379;48.208;-1.518;2023-06-14T19:18:50;23.50;99.90
31809;DHT22;18379;48.208;-1.518;2023-06-14T19:23:51;23.30;99.90
31809;DHT22;18379;48.208;-1.518;2023-06-14T19:28:54;23.10;99.90
31809;DHT22;18379;48.208;-1.518;2023-06-14T19:33:57;22.90;99.90
31809;DHT22;18379;48.208;-1.518;2023-06-14T19:38:58;22.80;99.90
31809;DHT22;18379;48.208;-1.518;2023-06-14T19:43:59;22.70;99.90
31809;DHT22;18379;48.208;-1.518;2023-06-14T19:48:59;22.50;99.90
31809;DHT22;18379;48.208;-1.518;2023-06-14T19:54:01;22.40;99.90
31809;DHT22;18379;48.208;-1.518;2023-06-14T19:59:01;22.40;99.90
31809;DHT22;18379;48.208;-1.518;2023-06-14T20:04:02;22.30;99.90
31809;DHT22;18379;48.208;-1.518;2023-06-14T20:09:06;22.00;99.90
31809;DHT22;18379;48.208;-1.518;2023-06-14T20:14:12;21.80;99.90
31809;DHT22;18379;48.208;-1.518;2023-06-14T20:19:13;21.90;99.90
31809;DHT22;18379;48.208;-1.518;2023-06-14T20:24:13;21.90;99.90
31809;DHT22;18379;48.208;-1.518;2023-06-14T20:29:14;21.70;99.90
31809;DHT22;18379;48.208;-1.518;2023-06-14T20:34:16;21.40;99.90
31809;DHT22;18379;48.208;-1.518;2023-06-14T20:39:17;21.30;99.90
31809;DHT22;18379;48.208;-1.518;2023-06-14T20:44:17;21.40;99.90
31809;DHT22;18379;48.208;-1.518;2023-06-14T20:49:19;21.20;99.90
31809;DHT22;18379;48.208;-1.518;2023-06-14T20:54:19;20.90;99.90
31809;DHT22;18379;48.208;-1.518;2023-06-14T20:59:20;20.80;99.90
31809;DHT22;18379;48.208;-1.518;2023-06-14T21:04:21;20.90;99.90
31809;DHT22;18379;48.208;-1.518;2023-06-14T21:09:22;21.00;99.90
31809;DHT22;18379;48.208;-1.518;2023-06-14T21:14:23;20.60;99.90
31809;DHT22;18379;48.208;-1.518;2023-06-14T21:19:24;20.50;99.90
31809;DHT22;18379;48.208;-1.518;2023-06-14T21:24:24;20.60;99.90
31809;DHT22;18379;48.208;-1.518;2023-06-14T21:29:25;20.50;99.90
31809;DHT22;18379;48.208;-1.518;2023-06-14T21:34:27;20.20;99.90
31809;DHT22;18379;48.208;-1.518;2023-06-14T21:39:28;20.20;99.90
31809;DHT22;18379;48.208;-1.518;2023-06-14T21:44:28;20.00;99.90
31809;DHT22;18379;48.208;-1.518;2023-06-14T21:49:30;19.80;99.90
31809;DHT22;18379;48.208;-1.518;2023-06-14T21:54:30;19.80;99.90
31809;DHT22;18379;48.208;-1.518;2023-06-14T21:59:31;20.00;99.90
31809;DHT22;18379;48.208;-1.518;2023-06-14T22:04:32;19.90;99.90
31809;DHT22;18379;48.208;-1.518;2023-06-14T22:09:32;19.60;99.90
31809;DHT22;18379;48.208;-1.518;2023-06-14T22:14:33;19.50;99.90
31809;DHT22;18379;48.208;-1.518;2023-06-14T22:19:34;19.30;99.90
31809;DHT22;18379;48.208;-1.518;2023-06-14T22:24:37;19.30;99.90
31809;DHT22;18379;48.208;-1.518;2023-06-14T22:29:38;19.20;99.90
31809;DHT22;18379;48.208;-1.518;2023-06-14T22:34:44;19.10;99.90
31809;DHT22;18379;48.208;-1.518;2023-06-14T22:39:45;19.00;99.90
31809;DHT22;18379;48.208;-1.518;2023-06-14T22:44:45;18.90;99.90
31809;DHT22;18379;48.208;-1.518;2023-06-14T22:49:50;18.80;99.90
31809;DHT22;18379;48.208;-1.518;2023-06-14T22:54:54;18.80;99.90
31809;DHT22;18379;48.208;-1.518;2023-06-14T22:59:55;18.90;99.90
31809;DHT22;18379;48.208;-1.518;2023-06-14T23:04:56;18.80;99.90
31809;DHT22;18379;48.208;-1.518;2023-06-14T23:09:57;18.60;99.90
31809;DHT22;18379;48.208;-1.518;2023-06-14T23:14:57;18.50;99.90
31809;DHT22;18379;48.208;-1.518;2023-06-14T23:20:00;18.50;99.90
31809;DHT22;18379;48.208;-1.518;2023-06-14T23:25:08;18.50;99.90
31809;DHT22;18379;48.208;-1.518;2023-06-14T23:30:09;18.20;99.90
31809;DHT22;18379;48.208;-1.518;2023-06-14T23:35:14;18.20;99.90
31809;DHT22;18379;48.208;-1.518;2023-06-14T23:40:18;18.10;99.90
31809;DHT22;18379;48.208;-1.518;2023-06-14T23:45:18;18.00;99.90
31809;DHT22;18379;48.208;-1.518;2023-06-14T23:50:19;17.80;99.90
31809;DHT22;18379;48.208;-1.518;2023-06-14T23:55:21;17.80;99.90
